createdAt,value
2023-04-04T00:06:54.749Z,4.50
2023-04-04T00:16:57.978Z,3.17
2023-04-04T00:27:03.087Z,2.63
2023-04-04T00:37:07.384Z,3.03
2023-04-04T00:47:12.223Z,4.13
2023-04-04T00:57:16.686Z,3.30
2023-04-04T01:07:21.294Z,3.07
2023-04-04T01:17:27.379Z,3.57
2023-04-04T01:27:32.134Z,2.20
2023-04-04T01:37:55.831Z,2.90
2023-04-04T01:48:01.560Z,3.37
2023-04-04T01:58:05.676Z,2.70
2023-04-04T02:08:10.754Z,2.97
2023-04-04T02:18:23.192Z,2.50
2023-04-04T02:28:30.181Z,2.73
2023-04-04T02:38:33.446Z,4.10
2023-04-04T02:48:41.078Z,2.77
2023-04-04T02:58:44.500Z,4.30
2023-04-04T03:08:49.331Z,3.63
2023-04-04T03:18:52.953Z,2.90
2023-04-04T03:28:59.572Z,3.53
2023-04-04T03:39:02.907Z,3.67
2023-04-04T03:49:07.740Z,4.70
2023-04-04T03:59:11.312Z,3.17
2023-04-04T04:09:16.282Z,2.87
2023-04-04T04:19:19.771Z,4.37
2023-04-04T04:29:25.664Z,4.30
2023-04-04T04:39:29.330Z,3.27
2023-04-04T04:50:12.950Z,3.50
2023-04-04T05:00:22.389Z,3.27
2023-04-04T05:10:27.965Z,4.10
2023-04-04T05:20:32.074Z,4.60
2023-04-04T05:30:39.312Z,5.07
2023-04-04T05:40:54.898Z,4.40
2023-04-04T05:51:00.956Z,3.83
2023-04-04T06:01:18.446Z,4.33
2023-04-04T06:11:26.280Z,4.97
2023-04-04T06:21:37.584Z,4.00
2023-04-04T06:31:43.258Z,3.60
2023-04-04T06:41:52.391Z,5.00
2023-04-04T06:52:02.671Z,4.00
2023-04-04T07:02:06.066Z,4.33
2023-04-04T07:12:10.691Z,4.17
2023-04-04T07:22:14.553Z,7.07
2023-04-04T07:32:19.076Z,5.00
2023-04-04T07:42:24.099Z,6.33
2023-04-04T07:52:28.598Z,6.37
2023-04-04T08:02:31.882Z,5.43
2023-04-04T08:12:36.508Z,5.00
2023-04-04T08:22:40.884Z,4.57
2023-04-04T08:32:46.149Z,4.57
2023-04-04T08:42:51.691Z,4.33
2023-04-04T08:52:57.263Z,4.17
2023-04-04T09:03:08.124Z,4.90
2023-04-04T09:13:16.585Z,4.77
2023-04-04T09:23:21.189Z,4.57
2023-04-04T09:33:27.810Z,3.67
2023-04-04T09:43:33.760Z,3.53
2023-04-04T09:53:42.115Z,4.13
2023-04-04T10:03:53.627Z,3.60
2023-04-04T10:13:58.420Z,4.07
2023-04-04T10:24:08.972Z,5.10
2023-04-04T10:34:20.103Z,3.33
2023-04-04T10:44:29.915Z,3.73
2023-04-04T10:54:34.991Z,3.77
2023-04-04T11:04:42.506Z,4.20
2023-04-04T11:14:58.212Z,3.60
2023-04-04T11:25:01.791Z,4.17
2023-04-04T11:35:08.184Z,3.00
2023-04-04T11:45:19.113Z,3.63
2023-04-04T11:55:23.855Z,3.50
2023-04-04T12:05:28.210Z,3.13
2023-04-04T12:15:33.366Z,5.10
2023-04-04T12:25:40.226Z,3.10
2023-04-04T12:35:52.740Z,2.77
2023-04-04T12:45:57.979Z,3.70
2023-04-04T12:56:05.119Z,3.30
2023-04-04T13:06:13.598Z,3.13
2023-04-04T13:16:31.763Z,3.70
2023-04-04T13:26:35.149Z,3.43
2023-04-04T13:36:39.737Z,3.33
2023-04-04T13:46:43.775Z,3.20
2023-04-04T13:56:48.390Z,3.03
2023-04-04T14:06:51.814Z,3.07
2023-04-04T14:16:56.364Z,4.23
2023-04-04T14:26:59.523Z,3.87
2023-04-04T14:37:04.233Z,3.77
2023-04-04T14:47:07.624Z,3.97
2023-04-04T14:57:12.290Z,4.10
2023-04-04T15:07:15.810Z,3.00
2023-04-04T15:17:20.370Z,3.50
2023-04-04T15:27:23.577Z,3.87
2023-04-04T15:37:28.185Z,3.27
2023-04-04T15:47:31.458Z,4.20
2023-04-04T15:57:36.126Z,4.57
2023-04-04T16:07:39.302Z,3.37
2023-04-04T16:17:43.914Z,3.80
2023-04-04T16:27:47.090Z,3.30
2023-04-04T16:37:51.718Z,3.57
2023-04-04T16:47:54.904Z,3.47
2023-04-04T16:57:59.736Z,3.70
2023-04-04T17:08:02.903Z,3.77
2023-04-04T17:18:08.388Z,3.77
2023-04-04T17:28:11.609Z,4.47
2023-04-04T17:38:16.249Z,4.17
2023-04-04T17:48:19.505Z,4.53
2023-04-04T17:58:25.796Z,4.30
2023-04-04T18:08:28.983Z,3.50
2023-04-04T18:18:33.521Z,3.80
2023-04-04T18:28:36.709Z,3.97
2023-04-04T18:38:41.204Z,3.67
2023-04-04T18:48:44.415Z,4.10
2023-04-04T18:58:49.011Z,4.47
2023-04-04T19:08:56.552Z,5.67
2023-04-04T19:19:01.114Z,4.53
2023-04-04T19:29:04.891Z,5.07
2023-04-04T19:39:10.971Z,3.83
2023-04-04T19:49:14.517Z,3.87
2023-04-04T19:59:55.983Z,5.73
2023-04-04T20:09:59.194Z,5.43
2023-04-04T20:20:03.762Z,5.47
2023-04-04T20:30:12.903Z,4.23
2023-04-04T20:40:39.623Z,5.73
2023-04-04T20:50:44.890Z,6.50
2023-04-04T21:00:50.568Z,4.17
2023-04-04T21:10:54.881Z,5.70
2023-04-04T21:21:18.859Z,5.40
2023-04-04T21:31:25.286Z,4.73
2023-04-04T21:41:31.807Z,5.73
2023-04-04T21:51:35.122Z,5.90
2023-04-04T22:01:40.636Z,4.93
2023-04-04T22:11:45.313Z,5.00
2023-04-04T22:21:49.920Z,6.13
2023-04-04T22:31:53.214Z,5.17
2023-04-04T22:41:57.822Z,4.83
2023-04-04T22:52:01.029Z,5.70
2023-04-04T23:02:06.353Z,6.07
2023-04-04T23:12:09.488Z,5.27
2023-04-04T23:22:14.234Z,6.83
2023-04-04T23:32:17.601Z,6.97
2023-04-04T23:42:22.828Z,5.27
2023-04-04T23:52:26.161Z,6.10
